createdAt,value
2024-01-04T00:00:05.409Z,100875.38
2024-01-04T00:02:33.995Z,100871.97
2024-01-04T00:05:01.398Z,100871.97
2024-01-04T00:07:31.164Z,100867.66
2024-01-04T00:09:58.406Z,100846.25
2024-01-04T00:12:26.129Z,100841.03
2024-01-04T00:15:07.279Z,100859.09
2024-01-04T00:17:34.597Z,100859.09
2024-01-04T00:20:02.341Z,100865.91
2024-01-04T00:22:32.292Z,100853.94
2024-01-04T00:24:59.492Z,100844.53
2024-01-04T00:27:26.603Z,100852.25
2024-01-04T00:29:54.238Z,100835.97
2024-01-04T00:32:21.524Z,100838.53
2024-01-04T00:34:48.686Z,100829.03
2024-01-04T00:37:15.919Z,100839.41
2024-01-04T00:39:43.108Z,100834.28
2024-01-04T00:42:10.966Z,100828.28
2024-01-04T00:44:38.243Z,100831.69
2024-01-04T00:47:05.527Z,100835.09
2024-01-04T00:49:33.128Z,100834.25
2024-01-04T00:52:00.348Z,100827.38
2024-01-04T00:54:27.628Z,100829.97
2024-01-04T00:56:55.255Z,100833.41
2024-01-04T00:59:23.139Z,100841.09
2024-01-04T01:01:50.388Z,100841.09
2024-01-04T01:04:17.613Z,100834.22
2024-01-04T01:06:45.012Z,100832.47
2024-01-04T01:09:12.414Z,100847.97
2024-01-04T01:11:39.722Z,100847.16
2024-01-04T01:14:07.042Z,100840.22
2024-01-04T01:16:34.457Z,100846.22
2024-01-04T01:19:01.856Z,100849.63
2024-01-04T01:21:29.566Z,100851.34
2024-01-04T01:23:56.905Z,100848.75
2024-01-04T01:26:24.586Z,100856.53
2024-01-04T01:28:51.927Z,100851.38
2024-01-04T01:31:19.280Z,100859.91
2024-01-04T01:33:47.264Z,100868.53
2024-01-04T01:36:15.562Z,100864.25
2024-01-04T01:38:42.891Z,100866.81
2024-01-04T01:41:10.054Z,100847.94
2024-01-04T01:43:37.377Z,100845.34
2024-01-04T01:46:04.977Z,100841.91
2024-01-04T01:48:32.574Z,100845.34
2024-01-04T01:51:00.396Z,100835.91
2024-01-04T01:53:28.388Z,100835.06
2024-01-04T01:55:56.435Z,100837.66
2024-01-04T01:58:23.695Z,100841.94
2024-01-04T02:00:51.393Z,100835.06
2024-01-04T02:03:19.337Z,100835.91
2024-01-04T02:05:46.824Z,100831.63
2024-01-04T02:08:14.207Z,100835.91
2024-01-04T02:10:41.413Z,100840.19
2024-01-04T02:13:10.473Z,100829.03
2024-01-04T02:15:37.966Z,100835.00
2024-01-04T02:18:05.853Z,100841.84
2024-01-04T02:20:53.951Z,100840.16
2024-01-04T02:23:21.377Z,100839.31
2024-01-04T02:25:48.437Z,100839.31
2024-01-04T02:28:15.592Z,100858.13
2024-01-04T02:30:42.807Z,100849.56
2024-01-04T02:33:10.364Z,100861.59
2024-01-04T02:35:37.858Z,100851.28
2024-01-04T02:38:05.306Z,100852.13
2024-01-04T02:40:32.516Z,100853.88
2024-01-04T02:42:59.917Z,100857.31
2024-01-04T02:45:29.660Z,100865.84
2024-01-04T02:47:57.291Z,100863.25
2024-01-04T02:50:24.787Z,100850.38
2024-01-04T02:52:51.873Z,100847.69
2024-01-04T02:55:20.952Z,100851.13
2024-01-04T02:57:48.648Z,100849.38
2024-01-04T03:00:18.690Z,100855.34
2024-01-04T03:02:46.270Z,100856.16
2024-01-04T03:05:13.695Z,100851.88
2024-01-04T03:07:40.922Z,100839.88
2024-01-04T03:10:08.748Z,100839.88
2024-01-04T03:12:38.804Z,100836.41
2024-01-04T03:15:08.405Z,100844.16
2024-01-04T03:17:35.781Z,100844.13
2024-01-04T03:20:04.640Z,100844.97
2024-01-04T03:22:31.806Z,100842.38
2024-01-04T03:24:59.110Z,100838.03
2024-01-04T03:27:26.242Z,100831.19
2024-01-04T03:29:55.951Z,100832.78
2024-01-04T03:32:23.926Z,100830.16
2024-01-04T03:34:52.192Z,100842.13
2024-01-04T03:37:19.433Z,100840.31
2024-01-04T03:39:46.673Z,100831.66
2024-01-04T03:42:15.182Z,100838.38
2024-01-04T03:44:43.588Z,100831.44
2024-01-04T03:47:12.203Z,100840.00
2024-01-04T03:49:39.356Z,100852.69
2024-01-04T03:52:06.662Z,100846.59
2024-01-04T03:54:34.058Z,100842.28
2024-01-04T03:57:01.222Z,100848.31
2024-01-04T03:59:28.368Z,100855.09
2024-01-04T04:01:55.583Z,100862.78
2024-01-04T04:04:22.701Z,100862.72
2024-01-04T04:06:50.220Z,100862.72
2024-01-04T04:09:19.738Z,100858.44
2024-01-04T04:11:49.146Z,100862.66
2024-01-04T04:14:16.693Z,100878.81
2024-01-04T04:16:43.823Z,100877.09
2024-01-04T04:19:11.410Z,100870.16
2024-01-04T04:21:38.797Z,100856.47
2024-01-04T04:24:07.466Z,100859.91
2024-01-04T04:26:34.665Z,100855.63
2024-01-04T04:29:01.806Z,100854.78
2024-01-04T04:31:29.021Z,100853.09
2024-01-04T04:33:56.273Z,100856.53
2024-01-04T04:36:23.545Z,100859.81
2024-01-04T04:38:50.825Z,100869.78
2024-01-04T04:41:18.057Z,100878.00
2024-01-04T04:43:47.372Z,100900.97
2024-01-04T04:46:14.915Z,100906.94
2024-01-04T04:48:42.206Z,100909.56
2024-01-04T04:51:11.480Z,100915.28
2024-01-04T04:53:38.849Z,100912.53
2024-01-04T04:56:06.681Z,100907.41
2024-01-04T04:58:33.869Z,100903.75
2024-01-04T05:01:01.063Z,100904.53
2024-01-04T05:03:28.345Z,100908.94
2024-01-04T05:05:55.589Z,100902.94
2024-01-04T05:08:24.207Z,100908.81
2024-01-04T05:10:51.340Z,100920.63
2024-01-04T05:13:18.578Z,100920.22
2024-01-04T05:15:45.843Z,100915.03
2024-01-04T05:18:13.511Z,100930.34
2024-01-04T05:20:44.507Z,100939.44
2024-01-04T05:23:11.982Z,100949.78
2024-01-04T05:25:41.979Z,100948.94
2024-01-04T05:28:10.902Z,100954.06
2024-01-04T05:30:38.875Z,100963.44
2024-01-04T05:33:06.450Z,100962.56
2024-01-04T05:35:36.245Z,100971.84
2024-01-04T05:38:04.554Z,100973.84
2024-01-04T05:40:32.255Z,100975.13
2024-01-04T05:43:00.279Z,100978.66
2024-01-04T05:45:27.663Z,100983.81
2024-01-04T05:47:54.931Z,100999.69
2024-01-04T05:50:22.212Z,100989.22
2024-01-04T05:52:49.501Z,100980.94
2024-01-04T05:55:17.189Z,100990.59
2024-01-04T05:57:45.317Z,100993.47
2024-01-04T06:00:15.320Z,100981.59
2024-01-04T06:02:44.419Z,100984.19
2024-01-04T06:05:11.664Z,100983.00
2024-01-04T06:07:39.037Z,100987.44
2024-01-04T06:10:07.060Z,100985.47
2024-01-04T06:12:34.516Z,100992.94
2024-01-04T06:15:04.622Z,100998.91
2024-01-04T06:17:33.020Z,100999.69
2024-01-04T06:20:00.219Z,101009.22
2024-01-04T06:22:27.358Z,101016.00
2024-01-04T06:24:54.647Z,101019.38
2024-01-04T06:27:21.806Z,101028.28
2024-01-04T06:29:48.985Z,101029.47
2024-01-04T06:32:16.016Z,101034.59
2024-01-04T06:34:43.373Z,101044.22
2024-01-04T06:37:11.628Z,101039.78
2024-01-04T06:39:38.814Z,101034.59
2024-01-04T06:42:06.308Z,101036.34
2024-01-04T06:44:41.554Z,101053.63
2024-01-04T06:47:15.702Z,101056.00
2024-01-04T06:49:43.350Z,101048.16
2024-01-04T06:52:10.482Z,101046.44
2024-01-04T06:54:37.881Z,101049.00
2024-01-04T06:57:07.967Z,101045.47
2024-01-04T06:59:36.181Z,101047.66
2024-01-04T07:02:06.318Z,101050.72
2024-01-04T07:04:33.841Z,101051.44
2024-01-04T07:07:01.044Z,101047.25
2024-01-04T07:09:28.285Z,101047.53
2024-01-04T07:11:55.659Z,101046.78
2024-01-04T07:14:22.816Z,101048.53
2024-01-04T07:16:50.884Z,101057.09
2024-01-04T07:19:18.240Z,101054.31
2024-01-04T07:21:45.437Z,101052.63
2024-01-04T07:24:12.849Z,101059.53
2024-01-04T07:26:39.959Z,101072.50
2024-01-04T07:29:07.291Z,101087.00
2024-01-04T07:31:34.349Z,101110.06
2024-01-04T07:34:02.256Z,101119.38
2024-01-04T07:36:30.279Z,101115.09
2024-01-04T07:38:59.715Z,101111.41
2024-01-04T07:41:26.979Z,101107.38
2024-01-04T07:43:54.647Z,101109.38
2024-01-04T07:46:21.749Z,101110.47
2024-01-04T07:48:49.289Z,101102.31
2024-01-04T07:51:16.604Z,101097.50
2024-01-04T07:53:43.845Z,101107.22
2024-01-04T07:56:11.094Z,101095.41
2024-01-04T07:58:38.389Z,101095.63
2024-01-04T08:01:05.771Z,101097.63
2024-01-04T08:03:33.171Z,101099.41
2024-01-04T08:06:01.185Z,101110.25
2024-01-04T08:08:28.833Z,101114.47
2024-01-04T08:10:56.168Z,101123.97
2024-01-04T08:13:23.311Z,101122.50
2024-01-04T08:15:53.775Z,101127.97
2024-01-04T08:18:25.498Z,101124.03
2024-01-04T08:20:55.816Z,101124.53
2024-01-04T08:23:23.108Z,101129.19
2024-01-04T08:25:55.229Z,101126.06
2024-01-04T08:28:32.946Z,101125.53
2024-01-04T08:31:04.198Z,101122.97
2024-01-04T08:33:35.216Z,101132.56
2024-01-04T08:36:03.109Z,101151.78
2024-01-04T08:38:31.743Z,101149.38
2024-01-04T08:41:01.895Z,101154.63
2024-01-04T08:43:29.250Z,101146.16
2024-01-04T08:45:56.387Z,101146.28
2024-01-04T08:48:23.877Z,101147.28
2024-01-04T08:50:51.699Z,101150.78
2024-01-04T08:53:21.856Z,101162.03
2024-01-04T08:55:56.812Z,101163.91
2024-01-04T08:58:23.971Z,101165.69
2024-01-04T09:00:53.870Z,101170.94
2024-01-04T09:03:21.631Z,101174.31
2024-01-04T09:05:49.550Z,101167.53
2024-01-04T09:08:16.974Z,101160.75
2024-01-04T09:10:44.077Z,101166.81
2024-01-04T09:13:11.189Z,101161.81
2024-01-04T09:15:38.300Z,101166.19
2024-01-04T09:18:05.749Z,101170.66
2024-01-04T09:20:33.481Z,101159.53
2024-01-04T09:23:00.615Z,101165.59
2024-01-04T09:25:29.601Z,101170.78
2024-01-04T09:28:01.349Z,101175.19
2024-01-04T09:30:30.810Z,101176.09
2024-01-04T09:33:08.251Z,101176.22
2024-01-04T09:35:35.455Z,101171.94
2024-01-04T09:38:03.195Z,101171.94
2024-01-04T09:40:31.048Z,101175.47
2024-01-04T09:43:00.941Z,101179.88
2024-01-04T09:45:31.166Z,101183.28
2024-01-04T09:48:01.632Z,101177.25
2024-01-04T09:50:30.868Z,101174.72
2024-01-04T09:52:59.604Z,101158.59
2024-01-04T09:55:26.949Z,101141.47
2024-01-04T09:57:54.248Z,101135.53
2024-01-04T10:00:21.579Z,101140.72
2024-01-04T10:02:51.070Z,101135.53
2024-01-04T10:05:21.648Z,101139.88
2024-01-04T10:07:58.032Z,101146.97
2024-01-04T10:10:31.289Z,101148.34
2024-01-04T10:13:00.555Z,101157.38
2024-01-04T10:15:27.671Z,101165.31
2024-01-04T10:17:57.251Z,101169.84
2024-01-04T10:20:24.661Z,101173.53
2024-01-04T10:22:51.831Z,101183.91
2024-01-04T10:25:20.084Z,101195.88
2024-01-04T10:28:00.525Z,101206.31
2024-01-04T10:30:28.421Z,101208.88
2024-01-04T10:32:56.006Z,101213.19
2024-01-04T10:35:31.368Z,101214.00
2024-01-04T10:38:00.656Z,101219.06
2024-01-04T10:40:31.878Z,101233.69
2024-01-04T10:43:00.398Z,101232.91
2024-01-04T10:45:33.790Z,101227.06
2024-01-04T10:48:01.544Z,101226.09
2024-01-04T10:50:31.677Z,101223.47
2024-01-04T10:53:04.060Z,101226.88
2024-01-04T10:55:31.543Z,101222.69
2024-01-04T10:57:59.856Z,101221.94
2024-01-04T11:00:29.487Z,101222.78
2024-01-04T11:02:58.708Z,101212.56
2024-01-04T11:05:26.418Z,101209.19
2024-01-04T11:07:57.390Z,101210.91
2024-01-04T11:10:25.270Z,101214.50
2024-01-04T11:12:54.040Z,101216.28
2024-01-04T11:15:21.576Z,101206.00
2024-01-04T11:18:26.656Z,101207.72
2024-01-04T11:21:00.328Z,101200.81
2024-01-04T11:23:30.818Z,101199.00
2024-01-04T11:26:31.228Z,101194.78
2024-01-04T11:29:07.832Z,101186.22
2024-01-04T11:31:40.028Z,101176.72
2024-01-04T11:34:10.317Z,101179.38
2024-01-04T11:36:37.747Z,101181.13
2024-01-04T11:39:05.612Z,101176.78
2024-01-04T11:41:36.439Z,101173.31
2024-01-04T11:44:15.792Z,101156.34
2024-01-04T11:46:44.597Z,101135.72
2024-01-04T11:49:17.428Z,101131.34
2024-01-04T11:51:46.593Z,101121.03
2024-01-04T11:54:16.952Z,101127.09
2024-01-04T11:56:45.479Z,101126.25
2024-01-04T11:59:14.605Z,101131.38
2024-01-04T12:01:43.791Z,101123.69
2024-01-04T12:04:16.424Z,101131.44
2024-01-04T12:06:48.553Z,101145.28
2024-01-04T12:09:19.405Z,101149.53
2024-01-04T12:11:58.932Z,101149.66
2024-01-04T12:14:27.487Z,101157.44
2024-01-04T12:16:55.202Z,101160.84
2024-01-04T12:19:22.611Z,101165.16
2024-01-04T12:21:50.371Z,101165.97
2024-01-04T12:24:18.274Z,101165.91
2024-01-04T12:26:47.282Z,101152.16
2024-01-04T12:29:15.631Z,101142.69
2024-01-04T12:31:46.181Z,101139.16
2024-01-04T12:34:17.791Z,101136.59
2024-01-04T12:36:46.516Z,101133.13
2024-01-04T12:39:15.084Z,101140.88
2024-01-04T12:41:47.983Z,101133.09
2024-01-04T12:44:16.401Z,101125.28
2024-01-04T12:46:45.544Z,101129.63
2024-01-04T12:49:16.708Z,101134.84
2024-01-04T12:51:47.976Z,101131.41
2024-01-04T12:54:15.601Z,101124.56
2024-01-04T12:56:43.071Z,101128.91
2024-01-04T12:59:12.356Z,101119.44
2024-01-04T13:01:39.973Z,101116.00
2024-01-04T13:04:09.288Z,101111.75
2024-01-04T13:06:37.137Z,101116.97
2024-01-04T13:09:05.101Z,101117.84
2024-01-04T13:11:32.593Z,101118.69
2024-01-04T13:14:01.515Z,101123.88
2024-01-04T13:16:29.934Z,101113.56
2024-01-04T13:18:57.707Z,101127.31
2024-01-04T13:21:25.353Z,101129.94
2024-01-04T13:23:52.816Z,101124.78
2024-01-04T13:26:20.253Z,101125.63
2024-01-04T13:28:47.765Z,101117.91
2024-01-04T13:31:15.446Z,101115.28
2024-01-04T13:33:43.325Z,101119.59
2024-01-04T13:36:11.070Z,101123.84
2024-01-04T13:38:38.500Z,101134.16
2024-01-04T13:41:06.043Z,101127.25
2024-01-04T13:43:33.883Z,101126.25
2024-01-04T13:46:02.116Z,101124.53
2024-01-04T13:48:32.012Z,101128.84
2024-01-04T13:50:59.724Z,101127.00
2024-01-04T13:53:27.476Z,101115.81
2024-01-04T13:55:55.172Z,101116.66
2024-01-04T13:58:22.957Z,101119.16
2024-01-04T14:00:50.600Z,101119.16
2024-01-04T14:03:20.506Z,101130.41
2024-01-04T14:05:54.322Z,101125.25
2024-01-04T14:08:25.007Z,101129.56
2024-01-04T14:10:57.343Z,101133.78
2024-01-04T14:13:25.545Z,101140.63
2024-01-04T14:15:53.184Z,101141.53
2024-01-04T14:18:20.987Z,101141.50
2024-01-04T14:20:48.489Z,101145.69
2024-01-04T14:23:15.700Z,101149.16
2024-01-04T14:25:43.097Z,101155.94
2024-01-04T14:28:10.525Z,101156.81
2024-01-04T14:30:38.565Z,101148.09
2024-01-04T14:33:06.587Z,101146.34
2024-01-04T14:35:34.780Z,101147.19
2024-01-04T14:38:03.198Z,101143.78
2024-01-04T14:40:30.491Z,101135.94
2024-01-04T14:42:58.981Z,101147.94
2024-01-04T14:45:29.623Z,101147.94
2024-01-04T14:47:57.762Z,101142.75
2024-01-04T14:50:25.476Z,101139.31
2024-01-04T14:52:52.828Z,101133.22
2024-01-04T14:55:26.806Z,101137.47
2024-01-04T14:57:54.269Z,101131.47
2024-01-04T15:00:21.805Z,101138.34
2024-01-04T15:02:49.585Z,101134.00
2024-01-04T15:05:17.339Z,101145.94
2024-01-04T15:07:45.284Z,101134.72
2024-01-04T15:10:12.943Z,101135.56
2024-01-04T15:12:41.156Z,101143.34
2024-01-04T15:15:20.579Z,101149.31
2024-01-04T15:17:54.242Z,101148.38
2024-01-04T15:20:23.609Z,101156.03
2024-01-04T15:22:50.974Z,101149.22
2024-01-04T15:25:18.245Z,101138.81
2024-01-04T15:27:45.692Z,101154.34
2024-01-04T15:30:16.563Z,101166.28
2024-01-04T15:32:44.481Z,101160.22
2024-01-04T15:35:11.635Z,101160.22
2024-01-04T15:37:38.833Z,101165.31
2024-01-04T15:40:08.210Z,101167.84
2024-01-04T15:42:35.394Z,101172.09
2024-01-04T15:45:02.732Z,101172.09
2024-01-04T15:47:31.539Z,101168.56
2024-01-04T15:49:58.914Z,101177.19
2024-01-04T15:52:26.279Z,101187.47
2024-01-04T15:54:54.479Z,101188.28
2024-01-04T15:57:21.994Z,101189.06
2024-01-04T15:59:49.345Z,101193.31
2024-01-04T16:02:16.520Z,101195.88
2024-01-04T16:04:43.782Z,101181.25
2024-01-04T16:07:13.183Z,101185.53
2024-01-04T16:09:40.446Z,101184.63
2024-01-04T16:12:07.988Z,101189.78
2024-01-04T16:14:36.237Z,101199.16
2024-01-04T16:17:04.466Z,101193.09
2024-01-04T16:19:31.746Z,101198.22
2024-01-04T16:21:59.948Z,101202.47
2024-01-04T16:24:27.509Z,101198.13
2024-01-04T16:26:54.916Z,101209.25
2024-01-04T16:29:22.325Z,101210.91
2024-01-04T16:31:49.613Z,101207.44
2024-01-04T16:34:17.409Z,101203.97
2024-01-04T16:36:44.869Z,101214.25
2024-01-04T16:39:14.285Z,101220.16
2024-01-04T16:41:47.140Z,101220.03
2024-01-04T16:44:16.054Z,101212.22
2024-01-04T16:46:43.466Z,101216.50
2024-01-04T16:49:13.785Z,101205.31
2024-01-04T16:51:41.654Z,101206.91
2024-01-04T16:54:10.112Z,101205.13
2024-01-04T16:56:37.574Z,101206.78
2024-01-04T16:59:05.460Z,101208.50
2024-01-04T17:01:52.583Z,101219.66
2024-01-04T17:04:39.924Z,101221.31
2024-01-04T17:07:07.575Z,101221.31
2024-01-04T17:09:35.066Z,101220.44
2024-01-04T17:12:06.138Z,101219.66
2024-01-04T17:14:34.357Z,101224.78
2024-01-04T17:17:01.661Z,101228.22
2024-01-04T17:19:34.061Z,101232.44
2024-01-04T17:22:04.703Z,101235.03
2024-01-04T17:24:33.301Z,101235.06
2024-01-04T17:27:01.557Z,101236.78
2024-01-04T17:29:29.681Z,101242.72
2024-01-04T17:31:57.264Z,101236.63
2024-01-04T17:34:24.890Z,101242.59
2024-01-04T17:36:52.297Z,101244.25
2024-01-04T17:39:20.807Z,101245.97
2024-01-04T17:41:50.022Z,101238.28
2024-01-04T17:44:19.188Z,101248.56
2024-01-04T17:46:47.417Z,101244.25
2024-01-04T17:49:15.461Z,101242.56
2024-01-04T17:51:43.474Z,101241.69
2024-01-04T17:54:10.988Z,101250.25
2024-01-04T17:56:38.149Z,101245.94
2024-01-04T17:59:06.579Z,101245.13
2024-01-04T18:01:40.295Z,101237.31
2024-01-04T18:04:08.561Z,101246.84
2024-01-04T18:06:36.025Z,101248.59
2024-01-04T18:09:03.478Z,101245.19
2024-01-04T18:11:32.746Z,101258.09
2024-01-04T18:14:00.493Z,101252.94
2024-01-04T18:16:28.310Z,101261.50
2024-01-04T18:18:56.054Z,101258.88
2024-01-04T18:21:24.998Z,101265.72
2024-01-04T18:23:59.866Z,101273.28
2024-01-04T18:26:33.224Z,101274.16
2024-01-04T18:29:01.543Z,101271.56
2024-01-04T18:31:29.551Z,101273.22
2024-01-04T18:33:57.391Z,101266.31
2024-01-04T18:36:28.182Z,101266.28
2024-01-04T18:39:01.634Z,101262.84
2024-01-04T18:41:33.714Z,101266.28
2024-01-04T18:44:01.472Z,101275.72
2024-01-04T18:46:34.402Z,101267.06
2024-01-04T18:49:01.976Z,101263.56
2024-01-04T18:51:29.382Z,101266.06
2024-01-04T18:53:56.940Z,101272.06
2024-01-04T18:56:26.156Z,101266.81
2024-01-04T18:58:53.570Z,101280.63
2024-01-04T19:01:24.241Z,101275.44
2024-01-04T19:03:51.786Z,101280.63
2024-01-04T19:06:19.064Z,101281.50
2024-01-04T19:08:46.507Z,101276.41
2024-01-04T19:11:13.826Z,101291.88
2024-01-04T19:13:41.246Z,101284.19
2024-01-04T19:16:10.155Z,101282.47
2024-01-04T19:18:50.943Z,101277.31
2024-01-04T19:21:21.136Z,101282.47
2024-01-04T19:23:48.733Z,101291.03
2024-01-04T19:26:16.176Z,101292.69
2024-01-04T19:28:46.927Z,101304.69
2024-01-04T19:31:21.468Z,101297.03
2024-01-04T19:33:52.335Z,101298.75
2024-01-04T19:36:20.077Z,101303.03
2024-01-04T19:38:48.119Z,101310.75
2024-01-04T19:41:16.247Z,101308.19
2024-01-04T19:43:43.893Z,101309.88
2024-01-04T19:46:11.972Z,101307.31
2024-01-04T19:48:40.267Z,101309.94
2024-01-04T19:51:08.660Z,101316.78
2024-01-04T19:53:42.625Z,101319.34
2024-01-04T19:56:10.203Z,101320.16
2024-01-04T19:58:38.078Z,101325.31
2024-01-04T20:01:06.828Z,101327.06
2024-01-04T20:03:35.117Z,101327.06
2024-01-04T20:06:03.951Z,101326.22
2024-01-04T20:08:31.879Z,101322.78
2024-01-04T20:11:02.167Z,101321.88
2024-01-04T20:13:40.037Z,101322.78
2024-01-04T20:16:07.991Z,101323.56
2024-01-04T20:18:43.651Z,101325.22
2024-01-04T20:21:30.988Z,101326.81
2024-01-04T20:24:02.585Z,101326.03
2024-01-04T20:26:30.319Z,101332.00
2024-01-04T20:29:01.317Z,101336.31
2024-01-04T20:31:30.601Z,101339.78
2024-01-04T20:33:59.534Z,101336.31
2024-01-04T20:36:27.235Z,101335.50
2024-01-04T20:38:55.786Z,101330.38
2024-01-04T20:41:23.199Z,101327.81
2024-01-04T20:43:56.037Z,101327.78
2024-01-04T20:46:28.506Z,101331.22
2024-01-04T20:48:56.996Z,101331.16
2024-01-04T20:51:24.606Z,101332.84
2024-01-04T20:54:02.441Z,101319.16
2024-01-04T20:56:30.826Z,101314.94
2024-01-04T20:58:58.224Z,101312.31
2024-01-04T21:01:26.903Z,101310.56
2024-01-04T21:03:59.619Z,101305.47
2024-01-04T21:06:27.755Z,101301.97
2024-01-04T21:08:55.529Z,101304.53
2024-01-04T21:11:24.521Z,101299.34
2024-01-04T21:14:11.965Z,101302.78
2024-01-04T21:16:42.512Z,101293.38
2024-01-04T21:19:09.901Z,101291.69
2024-01-04T21:21:37.076Z,101291.69
2024-01-04T21:24:04.524Z,101296.81
2024-01-04T21:26:32.416Z,101299.34
2024-01-04T21:29:00.008Z,101295.88
2024-01-04T21:31:27.307Z,101301.00
2024-01-04T21:33:54.743Z,101297.56
2024-01-04T21:36:22.984Z,101297.50
2024-01-04T21:39:21.535Z,101300.00
2024-01-04T21:41:50.332Z,101305.81
2024-01-04T21:44:17.735Z,101296.31
2024-01-04T21:46:51.030Z,101306.47
2024-01-04T21:49:22.686Z,101311.50
2024-01-04T21:51:52.671Z,101295.91
2024-01-04T21:54:20.153Z,101300.25
2024-01-04T21:56:47.593Z,101295.97
2024-01-04T21:59:34.937Z,101308.16
2024-01-04T22:02:19.205Z,101309.94
2024-01-04T22:04:50.100Z,101305.59
2024-01-04T22:07:19.206Z,101303.00
2024-01-04T22:09:46.751Z,101306.31
2024-01-04T22:12:14.314Z,101294.25
2024-01-04T22:14:41.610Z,101299.50
2024-01-04T22:17:09.331Z,101300.25
2024-01-04T22:19:37.069Z,101301.13
2024-01-04T22:22:04.915Z,101280.63
2024-01-04T22:24:32.484Z,101276.41
2024-01-04T22:27:00.572Z,101273.91
2024-01-04T22:29:33.073Z,101279.97
2024-01-04T22:32:02.906Z,101280.03
2024-01-04T22:34:34.813Z,101277.47
2024-01-04T22:37:02.741Z,101264.38
2024-01-04T22:39:30.338Z,101265.88
2024-01-04T22:41:57.838Z,101269.38
2024-01-04T22:44:25.280Z,101272.84
2024-01-04T22:46:52.937Z,101266.84
2024-01-04T22:49:20.580Z,101250.53
2024-01-04T22:51:48.457Z,101255.56
2024-01-04T22:54:15.970Z,101247.00
2024-01-04T22:56:43.844Z,101248.63
2024-01-04T22:59:11.517Z,101244.22
2024-01-04T23:01:38.682Z,101253.63
2024-01-04T23:04:06.315Z,101254.47
2024-01-04T23:06:34.247Z,101242.44
2024-01-04T23:09:01.442Z,101260.34
2024-01-04T23:11:28.912Z,101256.91
2024-01-04T23:13:56.041Z,101250.00
2024-01-04T23:16:23.256Z,101245.44
2024-01-04T23:18:50.842Z,101235.88
2024-01-04T23:21:18.262Z,101236.50
2024-01-04T23:23:47.020Z,101238.28
2024-01-04T23:26:14.185Z,101246.91
2024-01-04T23:28:41.577Z,101242.78
2024-01-04T23:31:08.800Z,101242.00
2024-01-04T23:33:40.467Z,101233.38
2024-01-04T23:36:10.867Z,101229.19
2024-01-04T23:38:38.316Z,101231.81
2024-01-04T23:41:06.266Z,101224.84
2024-01-04T23:43:33.485Z,101222.34
2024-01-04T23:46:00.589Z,101220.03
2024-01-04T23:48:27.942Z,101219.13
2024-01-04T23:50:55.459Z,101225.13
2024-01-04T23:53:22.798Z,101216.63
2024-01-04T23:55:49.943Z,101221.63
2024-01-04T23:58:17.461Z,101218.78
